sensor_id;sensor_type;location;lat;lon;timestamp;temperature;humidity
19888;DHT22;10106;51.332;12.336;2023-05-10T00:01:48;11.40;99.90
19888;DHT22;10106;51.332;12.336;2023-05-10T00:04:13;11.40;99.90
19888;DHT22;10106;51.332;12.336;2023-05-10T00:06:39;11.30;99.90
19888;DHT22;10106;51.332;12.336;2023-05-10T00:09:04;11.30;99.90
19888;DHT22;10106;51.332;12.336;2023-05-10T00:11:30;11.30;99.90
19888;DHT22;10106;51.332;12.336;2023-05-10T00:13:56;11.20;99.90
19888;DHT22;10106;51.332;12.336;2023-05-10T00:16:21;11.20;99.90
19888;DHT22;10106;51.332;12.336;2023-05-10T00:18:47;11.20;99.90
19888;DHT22;10106;51.332;12.336;2023-05-10T00:21:13;11.20;99.90
19888;DHT22;10106;51.332;12.336;2023-05-10T00:23:38;11.10;99.90
19888;DHT22;10106;51.332;12.336;2023-05-10T00:26:04;11.10;99.90
19888;DHT22;10106;51.332;12.336;2023-05-10T00:28:32;11.10;99.90
19888;DHT22;10106;51.332;12.336;2023-05-10T00:30:57;11.10;99.90
19888;DHT22;10106;51.332;12.336;2023-05-10T00:33:23;11.10;99.90
19888;DHT22;10106;51.332;12.336;2023-05-10T00:35:51;11.00;99.90
19888;DHT22;10106;51.332;12.336;2023-05-10T00:38:19;11.00;99.90
19888;DHT22;10106;51.332;12.336;2023-05-10T00:40:47;10.90;99.90
19888;DHT22;10106;51.332;12.336;2023-05-10T00:43:13;10.90;99.90
19888;DHT22;10106;51.332;12.336;2023-05-10T00:45:39;10.90;99.90
19888;DHT22;10106;51.332;12.336;2023-05-10T00:48:05;10.90;99.90
19888;DHT22;10106;51.332;12.336;2023-05-10T00:50:31;10.80;99.90
19888;DHT22;10106;51.332;12.336;2023-05-10T00:52:59;10.80;99.90
19888;DHT22;10106;51.332;12.336;2023-05-10T00:55:24;10.80;99.90
19888;DHT22;10106;51.332;12.336;2023-05-10T00:57:51;10.80;99.90
19888;DHT22;10106;51.332;12.336;2023-05-10T01:00:17;10.80;99.90
19888;DHT22;10106;51.332;12.336;2023-05-10T01:02:46;10.70;99.90
19888;DHT22;10106;51.332;12.336;2023-05-10T01:05:12;10.80;99.90
19888;DHT22;10106;51.332;12.336;2023-05-10T01:07:38;10.70;99.90
19888;DHT22;10106;51.332;12.336;2023-05-10T01:10:04;10.80;99.90
19888;DHT22;10106;51.332;12.336;2023-05-10T01:12:30;10.80;99.90
19888;DHT22;10106;51.332;12.336;2023-05-10T01:14:56;10.80;99.90
19888;DHT22;10106;51.332;12.336;2023-05-10T01:17:22;10.80;99.90
19888;DHT22;10106;51.332;12.336;2023-05-10T01:19:48;10.70;99.90
19888;DHT22;10106;51.332;12.336;2023-05-10T01:35:55;10.60;99.90
19888;DHT22;10106;51.332;12.336;2023-05-10T01:38:47;10.60;99.90
19888;DHT22;10106;51.332;12.336;2023-05-10T01:46:40;10.40;99.90
19888;DHT22;10106;51.332;12.336;2023-05-10T01:49:09;10.50;99.90
19888;DHT22;10106;51.332;12.336;2023-05-10T01:51:40;10.50;99.90
19888;DHT22;10106;51.332;12.336;2023-05-10T01:54:07;10.50;99.90
19888;DHT22;10106;51.332;12.336;2023-05-10T01:56:33;10.40;99.90
19888;DHT22;10106;51.332;12.336;2023-05-10T01:59:00;10.40;99.90
19888;DHT22;10106;51.332;12.336;2023-05-10T02:01:28;10.40;99.90
19888;DHT22;10106;51.332;12.336;2023-05-10T02:03:54;10.40;99.90
19888;DHT22;10106;51.332;12.336;2023-05-10T02:06:20;10.40;99.90
19888;DHT22;10106;51.332;12.336;2023-05-10T02:08:47;10.40;99.90
19888;DHT22;10106;51.332;12.336;2023-05-10T02:11:14;10.40;99.90
19888;DHT22;10106;51.332;12.336;2023-05-10T02:13:40;10.40;99.90
19888;DHT22;10106;51.332;12.336;2023-05-10T02:16:06;10.40;99.90
19888;DHT22;10106;51.332;12.336;2023-05-10T02:18:33;10.40;99.90
19888;DHT22;10106;51.332;12.336;2023-05-10T02:20:59;10.40;99.90
19888;DHT22;10106;51.332;12.336;2023-05-10T02:23:25;10.30;99.90
19888;DHT22;10106;51.332;12.336;2023-05-10T02:25:51;10.30;99.90
19888;DHT22;10106;51.332;12.336;2023-05-10T02:28:18;10.30;99.90
19888;DHT22;10106;51.332;12.336;2023-05-10T02:30:44;10.30;99.90
19888;DHT22;10106;51.332;12.336;2023-05-10T02:33:10;10.30;99.90
19888;DHT22;10106;51.332;12.336;2023-05-10T02:35:36;10.30;99.90
19888;DHT22;10106;51.332;12.336;2023-05-10T02:38:03;10.30;99.90
19888;DHT22;10106;51.332;12.336;2023-05-10T02:40:29;10.20;99.90
19888;DHT22;10106;51.332;12.336;2023-05-10T02:42:56;10.20;99.90
19888;DHT22;10106;51.332;12.336;2023-05-10T02:45:23;10.20;99.90
19888;DHT22;10106;51.332;12.336;2023-05-10T02:47:50;10.20;99.90
19888;DHT22;10106;51.332;12.336;2023-05-10T02:50:15;10.20;99.90
19888;DHT22;10106;51.332;12.336;2023-05-10T02:52:42;10.20;99.90
19888;DHT22;10106;51.332;12.336;2023-05-10T02:55:09;10.20;99.90
19888;DHT22;10106;51.332;12.336;2023-05-10T02:57:38;10.10;99.90
19888;DHT22;10106;51.332;12.336;2023-05-10T03:00:05;10.00;99.90
19888;DHT22;10106;51.332;12.336;2023-05-10T03:02:31;10.00;99.90
19888;DHT22;10106;51.332;12.336;2023-05-10T03:04:57;10.10;99.90
19888;DHT22;10106;51.332;12.336;2023-05-10T03:07:23;10.00;99.90
19888;DHT22;10106;51.332;12.336;2023-05-10T03:09:49;10.00;99.90
19888;DHT22;10106;51.332;12.336;2023-05-10T03:14:56;9.90;99.90
19888;DHT22;10106;51.332;12.336;2023-05-10T03:20:06;9.90;99.90
19888;DHT22;10106;51.332;12.336;2023-05-10T03:22:37;9.80;99.90
19888;DHT22;10106;51.332;12.336;2023-05-10T03:25:04;9.80;99.90
19888;DHT22;10106;51.332;12.336;2023-05-10T03:27:31;9.90;99.90
19888;DHT22;10106;51.332;12.336;2023-05-10T03:29:57;9.90;99.90
19888;DHT22;10106;51.332;12.336;2023-05-10T03:32:23;9.90;99.90
19888;DHT22;10106;51.332;12.336;2023-05-10T03:34:49;10.00;99.90
19888;DHT22;10106;51.332;12.336;2023-05-10T03:37:14;9.90;99.90
19888;DHT22;10106;51.332;12.336;2023-05-10T03:39:40;10.00;99.90
19888;DHT22;10106;51.332;12.336;2023-05-10T03:42:06;10.00;99.90
19888;DHT22;10106;51.332;12.336;2023-05-10T03:44:31;10.10;99.90
19888;DHT22;10106;51.332;12.336;2023-05-10T03:46:58;10.10;99.90
19888;DHT22;10106;51.332;12.336;2023-05-10T03:49:24;10.20;99.90
19888;DHT22;10106;51.332;12.336;2023-05-10T03:51:49;10.30;99.90
19888;DHT22;10106;51.332;12.336;2023-05-10T03:54:15;10.50;99.90
19888;DHT22;10106;51.332;12.336;2023-05-10T03:56:40;10.60;99.90
19888;DHT22;10106;51.332;12.336;2023-05-10T03:59:06;10.80;99.90
19888;DHT22;10106;51.332;12.336;2023-05-10T04:01:35;10.90;99.90
19888;DHT22;10106;51.332;12.336;2023-05-10T04:04:01;11.00;99.90
19888;DHT22;10106;51.332;12.336;2023-05-10T04:06:26;11.20;99.90
19888;DHT22;10106;51.332;12.336;2023-05-10T04:08:52;11.30;99.90
19888;DHT22;10106;51.332;12.336;2023-05-10T04:11:17;11.30;99.90
19888;DHT22;10106;51.332;12.336;2023-05-10T04:13:43;11.40;99.90
19888;DHT22;10106;51.332;12.336;2023-05-10T04:16:09;11.50;99.90
19888;DHT22;10106;51.332;12.336;2023-05-10T04:18:34;11.70;99.90
19888;DHT22;10106;51.332;12.336;2023-05-10T04:21:00;11.90;99.90
19888;DHT22;10106;51.332;12.336;2023-05-10T04:23:26;12.10;99.90
19888;DHT22;10106;51.332;12.336;2023-05-10T04:25:52;12.50;99.90
19888;DHT22;10106;51.332;12.336;2023-05-10T04:28:17;12.50;99.90
19888;DHT22;10106;51.332;12.336;2023-05-10T04:30:43;12.80;99.90
19888;DHT22;10106;51.332;12.336;2023-05-10T04:33:09;13.20;99.90
19888;DHT22;10106;51.332;12.336;2023-05-10T04:35:34;13.90;99.90
19888;DHT22;10106;51.332;12.336;2023-05-10T04:38:00;15.00;99.90
19888;DHT22;10106;51.332;12.336;2023-05-10T04:40:26;15.90;99.90
19888;DHT22;10106;51.332;12.336;2023-05-10T04:42:51;16.80;99.90
19888;DHT22;10106;51.332;12.336;2023-05-10T04:45:17;17.80;99.90
19888;DHT22;10106;51.332;12.336;2023-05-10T04:47:42;19.20;99.90
19888;DHT22;10106;51.332;12.336;2023-05-10T04:50:08;20.40;98.00
19888;DHT22;10106;51.332;12.336;2023-05-10T04:52:34;21.20;96.60
19888;DHT22;10106;51.332;12.336;2023-05-10T04:54:59;21.50;95.90
19888;DHT22;10106;51.332;12.336;2023-05-10T04:57:25;21.40;93.80
19888;DHT22;10106;51.332;12.336;2023-05-10T04:59:51;21.80;90.40
19888;DHT22;10106;51.332;12.336;2023-05-10T05:07:28;22.50;88.80
19888;DHT22;10106;51.332;12.336;2023-05-10T05:09:56;23.00;87.20
19888;DHT22;10106;51.332;12.336;2023-05-10T05:12:22;22.60;85.20
19888;DHT22;10106;51.332;12.336;2023-05-10T05:14:48;21.60;84.10
19888;DHT22;10106;51.332;12.336;2023-05-10T05:17:14;21.40;96.10
19888;DHT22;10106;51.332;12.336;2023-05-10T05:19:39;21.50;95.50
19888;DHT22;10106;51.332;12.336;2023-05-10T05:22:06;20.80;94.50
19888;DHT22;10106;51.332;12.336;2023-05-10T05:24:39;20.00;94.50
19888;DHT22;10106;51.332;12.336;2023-05-10T05:27:05;19.60;95.10
19888;DHT22;10106;51.332;12.336;2023-05-10T05:29:31;19.70;95.10
19888;DHT22;10106;51.332;12.336;2023-05-10T05:31:57;20.00;95.20
19888;DHT22;10106;51.332;12.336;2023-05-10T05:34:23;19.90;94.60
19888;DHT22;10106;51.332;12.336;2023-05-10T05:36:52;19.80;94.80
19888;DHT22;10106;51.332;12.336;2023-05-10T05:39:19;20.00;94.70
19888;DHT22;10106;51.332;12.336;2023-05-10T05:41:45;19.70;94.40
19888;DHT22;10106;51.332;12.336;2023-05-10T05:44:11;19.00;94.60
19888;DHT22;10106;51.332;12.336;2023-05-10T05:46:37;18.70;93.50
19888;DHT22;10106;51.332;12.336;2023-05-10T05:49:03;18.30;95.60
19888;DHT22;10106;51.332;12.336;2023-05-10T05:51:29;17.90;96.10
19888;DHT22;10106;51.332;12.336;2023-05-10T05:53:54;17.60;96.20
19888;DHT22;10106;51.332;12.336;2023-05-10T05:56:20;17.30;96.60
19888;DHT22;10106;51.332;12.336;2023-05-10T05:58:52;16.80;98.20
19888;DHT22;10106;51.332;12.336;2023-05-10T06:01:18;16.50;98.00
19888;DHT22;10106;51.332;12.336;2023-05-10T06:03:43;16.40;98.40
19888;DHT22;10106;51.332;12.336;2023-05-10T06:06:09;16.20;98.00
19888;DHT22;10106;51.332;12.336;2023-05-10T06:08:35;16.10;98.60
19888;DHT22;10106;51.332;12.336;2023-05-10T06:11:01;16.10;98.70
19888;DHT22;10106;51.332;12.336;2023-05-10T06:13:26;16.20;99.00
19888;DHT22;10106;51.332;12.336;2023-05-10T06:16:00;16.20;98.80
19888;DHT22;10106;51.332;12.336;2023-05-10T06:18:26;16.20;99.30
19888;DHT22;10106;51.332;12.336;2023-05-10T06:20:52;16.80;99.40
19888;DHT22;10106;51.332;12.336;2023-05-10T06:23:17;16.90;99.10
19888;DHT22;10106;51.332;12.336;2023-05-10T06:25:43;17.20;98.60
19888;DHT22;10106;51.332;12.336;2023-05-10T06:28:09;18.10;99.90
19888;DHT22;10106;51.332;12.336;2023-05-10T06:30:35;18.50;99.90
19888;DHT22;10106;51.332;12.336;2023-05-10T06:33:01;18.70;97.00
19888;DHT22;10106;51.332;12.336;2023-05-10T06:35:26;18.70;96.70
19888;DHT22;10106;51.332;12.336;2023-05-10T06:37:52;19.50;96.60
19888;DHT22;10106;51.332;12.336;2023-05-10T06:40:18;21.00;93.00
19888;DHT22;10106;51.332;12.336;2023-05-10T06:42:43;22.90;91.90
19888;DHT22;10106;51.332;12.336;2023-05-10T06:45:10;24.50;88.80
19888;DHT22;10106;51.332;12.336;2023-05-10T06:47:36;24.20;91.70
19888;DHT22;10106;51.332;12.336;2023-05-10T06:50:02;22.80;95.20
19888;DHT22;10106;51.332;12.336;2023-05-10T06:52:28;22.50;96.90
19888;DHT22;10106;51.332;12.336;2023-05-10T06:54:54;22.40;98.80
19888;DHT22;10106;51.332;12.336;2023-05-10T06:57:19;21.80;99.10
19888;DHT22;10106;51.332;12.336;2023-05-10T06:59:46;21.10;99.40
19888;DHT22;10106;51.332;12.336;2023-05-10T07:02:11;21.30;99.80
19888;DHT22;10106;51.332;12.336;2023-05-10T07:04:37;21.10;99.40
19888;DHT22;10106;51.332;12.336;2023-05-10T07:07:04;21.20;99.70
19888;DHT22;10106;51.332;12.336;2023-05-10T07:09:30;21.30;99.20
19888;DHT22;10106;51.332;12.336;2023-05-10T07:11:55;21.10;99.40
19888;DHT22;10106;51.332;12.336;2023-05-10T07:14:22;21.80;98.60
19888;DHT22;10106;51.332;12.336;2023-05-10T07:16:48;23.10;96.50
19888;DHT22;10106;51.332;12.336;2023-05-10T07:19:15;24.60;90.40
19888;DHT22;10106;51.332;12.336;2023-05-10T07:21:40;26.70;94.20
19888;DHT22;10106;51.332;12.336;2023-05-10T07:24:08;27.80;71.50
19888;DHT22;10106;51.332;12.336;2023-05-10T07:26:34;27.20;66.50
19888;DHT22;10106;51.332;12.336;2023-05-10T07:29:00;27.80;65.00
19888;DHT22;10106;51.332;12.336;2023-05-10T07:31:26;27.90;63.30
19888;DHT22;10106;51.332;12.336;2023-05-10T07:33:52;27.30;63.80
19888;DHT22;10106;51.332;12.336;2023-05-10T07:36:18;27.80;62.80
19888;DHT22;10106;51.332;12.336;2023-05-10T07:38:44;29.00;61.10
19888;DHT22;10106;51.332;12.336;2023-05-10T07:41:11;29.20;59.90
19888;DHT22;10106;51.332;12.336;2023-05-10T07:43:37;29.00;58.80
19888;DHT22;10106;51.332;12.336;2023-05-10T07:46:09;27.80;59.10
19888;DHT22;10106;51.332;12.336;2023-05-10T07:48:37;26.20;72.00
19888;DHT22;10106;51.332;12.336;2023-05-10T07:51:03;24.40;65.10
19888;DHT22;10106;51.332;12.336;2023-05-10T07:53:28;23.00;68.50
19888;DHT22;10106;51.332;12.336;2023-05-10T07:55:57;21.60;72.00
19888;DHT22;10106;51.332;12.336;2023-05-10T07:58:26;20.80;75.30
19888;DHT22;10106;51.332;12.336;2023-05-10T08:00:52;20.50;77.70
19888;DHT22;10106;51.332;12.336;2023-05-10T08:03:18;20.00;79.60
19888;DHT22;10106;51.332;12.336;2023-05-10T08:05:43;20.20;82.30
19888;DHT22;10106;51.332;12.336;2023-05-10T08:08:09;20.10;89.30
19888;DHT22;10106;51.332;12.336;2023-05-10T08:10:35;20.60;91.30
19888;DHT22;10106;51.332;12.336;2023-05-10T08:13:01;20.60;90.20
19888;DHT22;10106;51.332;12.336;2023-05-10T08:15:26;21.00;89.30
19888;DHT22;10106;51.332;12.336;2023-05-10T08:17:52;21.30;87.20
19888;DHT22;10106;51.332;12.336;2023-05-10T08:20:18;20.80;88.00
19888;DHT22;10106;51.332;12.336;2023-05-10T08:22:47;20.30;91.60
19888;DHT22;10106;51.332;12.336;2023-05-10T08:27:39;19.70;99.10
19888;DHT22;10106;51.332;12.336;2023-05-10T08:30:06;19.60;97.30
19888;DHT22;10106;51.332;12.336;2023-05-10T08:32:32;19.30;97.50
19888;DHT22;10106;51.332;12.336;2023-05-10T08:34:58;19.00;97.80
19888;DHT22;10106;51.332;12.336;2023-05-10T08:37:24;18.80;99.00
19888;DHT22;10106;51.332;12.336;2023-05-10T08:39:50;18.40;99.90
19888;DHT22;10106;51.332;12.336;2023-05-10T08:42:19;18.40;99.90
19888;DHT22;10106;51.332;12.336;2023-05-10T08:44:48;18.20;99.90
19888;DHT22;10106;51.332;12.336;2023-05-10T08:47:16;18.10;99.90
19888;DHT22;10106;51.332;12.336;2023-05-10T08:49:44;18.20;99.90
19888;DHT22;10106;51.332;12.336;2023-05-10T08:52:15;18.00;99.90
19888;DHT22;10106;51.332;12.336;2023-05-10T08:54:42;17.80;99.90
19888;DHT22;10106;51.332;12.336;2023-05-10T08:57:08;17.50;99.90
19888;DHT22;10106;51.332;12.336;2023-05-10T08:59:34;17.20;99.90
19888;DHT22;10106;51.332;12.336;2023-05-10T09:02:00;16.90;99.90
19888;DHT22;10106;51.332;12.336;2023-05-10T09:04:27;16.80;99.90
19888;DHT22;10106;51.332;12.336;2023-05-10T09:06:53;16.30;99.90
19888;DHT22;10106;51.332;12.336;2023-05-10T09:11:45;15.50;99.90
19888;DHT22;10106;51.332;12.336;2023-05-10T09:14:11;15.30;99.90
19888;DHT22;10106;51.332;12.336;2023-05-10T09:16:37;15.20;99.90
19888;DHT22;10106;51.332;12.336;2023-05-10T09:19:03;15.00;99.90
19888;DHT22;10106;51.332;12.336;2023-05-10T09:21:29;14.70;99.90
19888;DHT22;10106;51.332;12.336;2023-05-10T09:23:55;14.60;99.90
19888;DHT22;10106;51.332;12.336;2023-05-10T09:26:24;14.60;99.90
19888;DHT22;10106;51.332;12.336;2023-05-10T09:31:15;14.40;99.90
19888;DHT22;10106;51.332;12.336;2023-05-10T09:33:45;14.30;99.90
19888;DHT22;10106;51.332;12.336;2023-05-10T09:36:13;14.20;99.90
19888;DHT22;10106;51.332;12.336;2023-05-10T09:38:46;14.00;99.90
19888;DHT22;10106;51.332;12.336;2023-05-10T09:41:17;14.00;99.90
19888;DHT22;10106;51.332;12.336;2023-05-10T09:43:43;13.90;99.90
19888;DHT22;10106;51.332;12.336;2023-05-10T09:46:09;13.90;99.90
19888;DHT22;10106;51.332;12.336;2023-05-10T09:48:43;13.90;99.90
19888;DHT22;10106;51.332;12.336;2023-05-10T09:51:09;14.10;99.90
19888;DHT22;10106;51.332;12.336;2023-05-10T09:53:35;14.30;99.90
19888;DHT22;10106;51.332;12.336;2023-05-10T09:56:01;14.40;99.90
19888;DHT22;10106;51.332;12.336;2023-05-10T09:58:26;14.50;99.90
19888;DHT22;10106;51.332;12.336;2023-05-10T10:00:52;14.50;99.90
19888;DHT22;10106;51.332;12.336;2023-05-10T10:03:22;14.40;99.90
19888;DHT22;10106;51.332;12.336;2023-05-10T10:05:49;14.50;99.90
19888;DHT22;10106;51.332;12.336;2023-05-10T10:08:15;14.60;99.90
19888;DHT22;10106;51.332;12.336;2023-05-10T10:10:42;14.60;99.90
19888;DHT22;10106;51.332;12.336;2023-05-10T10:13:09;14.60;99.90
19888;DHT22;10106;51.332;12.336;2023-05-10T10:15:35;14.60;99.90
19888;DHT22;10106;51.332;12.336;2023-05-10T10:18:00;14.80;99.90
19888;DHT22;10106;51.332;12.336;2023-05-10T10:20:26;14.90;99.90
19888;DHT22;10106;51.332;12.336;2023-05-10T10:22:52;15.00;99.90
19888;DHT22;10106;51.332;12.336;2023-05-10T10:25:18;15.00;99.90
19888;DHT22;10106;51.332;12.336;2023-05-10T10:30:16;14.90;99.90
19888;DHT22;10106;51.332;12.336;2023-05-10T10:35:09;15.00;99.90
19888;DHT22;10106;51.332;12.336;2023-05-10T10:37:45;14.90;99.90
19888;DHT22;10106;51.332;12.336;2023-05-10T10:40:32;15.10;99.90
19888;DHT22;10106;51.332;12.336;2023-05-10T10:42:58;15.20;99.90
19888;DHT22;10106;51.332;12.336;2023-05-10T10:45:24;15.10;99.90
19888;DHT22;10106;51.332;12.336;2023-05-10T10:47:54;15.00;99.90
19888;DHT22;10106;51.332;12.336;2023-05-10T10:50:44;14.90;99.90
19888;DHT22;10106;51.332;12.336;2023-05-10T10:53:11;14.70;99.90
19888;DHT22;10106;51.332;12.336;2023-05-10T10:55:44;14.80;99.90
19888;DHT22;10106;51.332;12.336;2023-05-10T10:58:12;14.80;99.90
19888;DHT22;10106;51.332;12.336;2023-05-10T11:00:53;14.80;99.90
19888;DHT22;10106;51.332;12.336;2023-05-10T11:03:33;14.80;99.90
19888;DHT22;10106;51.332;12.336;2023-05-10T11:05:59;15.00;99.90
19888;DHT22;10106;51.332;12.336;2023-05-10T11:08:34;14.80;99.90
19888;DHT22;10106;51.332;12.336;2023-05-10T11:16:10;14.70;99.90
19888;DHT22;10106;51.332;12.336;2023-05-10T11:18:36;14.80;99.90
19888;DHT22;10106;51.332;12.336;2023-05-10T11:21:02;14.80;99.90
19888;DHT22;10106;51.332;12.336;2023-05-10T11:23:47;14.90;99.90
19888;DHT22;10106;51.332;12.336;2023-05-10T11:26:13;15.10;99.90
19888;DHT22;10106;51.332;12.336;2023-05-10T11:28:42;15.00;99.90
19888;DHT22;10106;51.332;12.336;2023-05-10T11:31:08;15.10;99.90
19888;DHT22;10106;51.332;12.336;2023-05-10T11:33:44;15.20;99.90
19888;DHT22;10106;51.332;12.336;2023-05-10T11:36:10;15.50;99.90
19888;DHT22;10106;51.332;12.336;2023-05-10T11:38:36;15.80;99.90
19888;DHT22;10106;51.332;12.336;2023-05-10T11:41:02;16.00;99.90
19888;DHT22;10106;51.332;12.336;2023-05-10T11:43:27;16.10;99.90
19888;DHT22;10106;51.332;12.336;2023-05-10T11:45:55;16.00;99.90
19888;DHT22;10106;51.332;12.336;2023-05-10T11:48:21;16.20;99.90
19888;DHT22;10106;51.332;12.336;2023-05-10T11:50:49;16.30;99.90
19888;DHT22;10106;51.332;12.336;2023-05-10T11:53:15;16.40;99.90
19888;DHT22;10106;51.332;12.336;2023-05-10T11:55:40;16.50;99.90
19888;DHT22;10106;51.332;12.336;2023-05-10T11:58:06;16.20;99.90
19888;DHT22;10106;51.332;12.336;2023-05-10T12:00:32;16.40;99.90
19888;DHT22;10106;51.332;12.336;2023-05-10T12:02:58;16.60;99.90
19888;DHT22;10106;51.332;12.336;2023-05-10T12:05:23;16.70;99.90
19888;DHT22;10106;51.332;12.336;2023-05-10T12:07:49;16.60;99.90
19888;DHT22;10106;51.332;12.336;2023-05-10T12:10:15;16.70;99.90
19888;DHT22;10106;51.332;12.336;2023-05-10T12:12:46;16.70;99.90
19888;DHT22;10106;51.332;12.336;2023-05-10T12:15:19;16.70;99.90
19888;DHT22;10106;51.332;12.336;2023-05-10T12:17:45;16.80;99.90
19888;DHT22;10106;51.332;12.336;2023-05-10T12:20:21;16.90;99.90
19888;DHT22;10106;51.332;12.336;2023-05-10T12:22:49;16.90;99.90
19888;DHT22;10106;51.332;12.336;2023-05-10T12:25:22;16.90;99.90
19888;DHT22;10106;51.332;12.336;2023-05-10T12:27:51;16.90;99.90
19888;DHT22;10106;51.332;12.336;2023-05-10T12:30:24;17.00;99.90
19888;DHT22;10106;51.332;12.336;2023-05-10T12:32:50;17.10;99.90
19888;DHT22;10106;51.332;12.336;2023-05-10T12:35:16;17.10;99.90
19888;DHT22;10106;51.332;12.336;2023-05-10T12:37:42;17.10;99.90
19888;DHT22;10106;51.332;12.336;2023-05-10T12:40:08;17.10;99.90
19888;DHT22;10106;51.332;12.336;2023-05-10T12:42:35;17.20;99.90
19888;DHT22;10106;51.332;12.336;2023-05-10T12:45:02;16.70;99.90
19888;DHT22;10106;51.332;12.336;2023-05-10T12:47:28;16.70;99.90
19888;DHT22;10106;51.332;12.336;2023-05-10T12:49:53;16.80;99.90
19888;DHT22;10106;51.332;12.336;2023-05-10T12:52:19;17.10;99.90
19888;DHT22;10106;51.332;12.336;2023-05-10T12:54:45;17.20;99.90
19888;DHT22;10106;51.332;12.336;2023-05-10T12:57:10;17.30;99.90
19888;DHT22;10106;51.332;12.336;2023-05-10T12:59:36;17.50;99.90
19888;DHT22;10106;51.332;12.336;2023-05-10T13:02:02;17.70;99.90
19888;DHT22;10106;51.332;12.336;2023-05-10T13:04:27;17.00;99.90
19888;DHT22;10106;51.332;12.336;2023-05-10T13:06:53;17.30;99.90
19888;DHT22;10106;51.332;12.336;2023-05-10T13:09:26;17.40;99.90
19888;DHT22;10106;51.332;12.336;2023-05-10T13:11:53;17.50;99.90
19888;DHT22;10106;51.332;12.336;2023-05-10T13:14:19;17.70;99.90
19888;DHT22;10106;51.332;12.336;2023-05-10T13:16:48;17.80;99.90
19888;DHT22;10106;51.332;12.336;2023-05-10T13:19:16;17.90;99.90
19888;DHT22;10106;51.332;12.336;2023-05-10T13:21:43;18.00;99.90
19888;DHT22;10106;51.332;12.336;2023-05-10T13:24:10;17.80;99.90
19888;DHT22;10106;51.332;12.336;2023-05-10T13:26:36;17.80;99.90
19888;DHT22;10106;51.332;12.336;2023-05-10T13:29:03;17.40;99.90
19888;DHT22;10106;51.332;12.336;2023-05-10T13:31:28;17.30;99.90
19888;DHT22;10106;51.332;12.336;2023-05-10T13:33:55;17.20;99.90
19888;DHT22;10106;51.332;12.336;2023-05-10T13:36:20;17.30;99.90
19888;DHT22;10106;51.332;12.336;2023-05-10T13:38:46;17.40;99.90
19888;DHT22;10106;51.332;12.336;2023-05-10T13:41:12;17.30;99.90
19888;DHT22;10106;51.332;12.336;2023-05-10T13:43:38;17.30;99.90
19888;DHT22;10106;51.332;12.336;2023-05-10T13:46:03;17.30;99.90
19888;DHT22;10106;51.332;12.336;2023-05-10T13:48:29;17.30;99.90
19888;DHT22;10106;51.332;12.336;2023-05-10T13:50:55;17.30;99.90
19888;DHT22;10106;51.332;12.336;2023-05-10T13:53:21;17.30;99.90
19888;DHT22;10106;51.332;12.336;2023-05-10T13:55:47;17.10;99.90
19888;DHT22;10106;51.332;12.336;2023-05-10T13:58:13;17.10;99.90
19888;DHT22;10106;51.332;12.336;2023-05-10T14:00:38;16.90;99.90
19888;DHT22;10106;51.332;12.336;2023-05-10T14:03:04;16.80;99.90
19888;DHT22;10106;51.332;12.336;2023-05-10T14:05:31;16.60;99.90
19888;DHT22;10106;51.332;12.336;2023-05-10T14:07:57;16.40;99.90
19888;DHT22;10106;51.332;12.336;2023-05-10T14:10:23;16.20;99.90
19888;DHT22;10106;51.332;12.336;2023-05-10T14:12:50;16.00;99.90
19888;DHT22;10106;51.332;12.336;2023-05-10T14:15:15;15.80;99.90
19888;DHT22;10106;51.332;12.336;2023-05-10T14:17:41;15.80;99.90
19888;DHT22;10106;51.332;12.336;2023-05-10T14:20:07;15.70;99.90
19888;DHT22;10106;51.332;12.336;2023-05-10T14:22:34;15.80;99.90
19888;DHT22;10106;51.332;12.336;2023-05-10T14:25:04;15.80;99.90
19888;DHT22;10106;51.332;12.336;2023-05-10T14:27:30;15.90;99.90
19888;DHT22;10106;51.332;12.336;2023-05-10T14:29:56;16.00;99.90
19888;DHT22;10106;51.332;12.336;2023-05-10T14:32:21;16.00;99.90
19888;DHT22;10106;51.332;12.336;2023-05-10T14:34:47;16.10;99.90
19888;DHT22;10106;51.332;12.336;2023-05-10T14:37:13;16.10;99.90
19888;DHT22;10106;51.332;12.336;2023-05-10T14:39:39;16.00;99.90
19888;DHT22;10106;51.332;12.336;2023-05-10T14:42:05;16.00;99.90
19888;DHT22;10106;51.332;12.336;2023-05-10T14:44:31;15.90;99.90
19888;DHT22;10106;51.332;12.336;2023-05-10T14:46:57;15.90;99.90
19888;DHT22;10106;51.332;12.336;2023-05-10T14:49:23;15.90;99.90
19888;DHT22;10106;51.332;12.336;2023-05-10T14:51:51;15.90;99.90
19888;DHT22;10106;51.332;12.336;2023-05-10T14:54:18;15.80;99.90
19888;DHT22;10106;51.332;12.336;2023-05-10T14:56:44;15.70;99.90
19888;DHT22;10106;51.332;12.336;2023-05-10T14:59:10;15.60;99.90
19888;DHT22;10106;51.332;12.336;2023-05-10T15:01:39;15.50;99.90
19888;DHT22;10106;51.332;12.336;2023-05-10T15:04:07;15.40;99.90
19888;DHT22;10106;51.332;12.336;2023-05-10T15:06:34;15.20;99.90
19888;DHT22;10106;51.332;12.336;2023-05-10T15:09:01;15.10;99.90
19888;DHT22;10106;51.332;12.336;2023-05-10T15:11:28;15.00;99.90
19888;DHT22;10106;51.332;12.336;2023-05-10T15:13:57;14.90;99.90
19888;DHT22;10106;51.332;12.336;2023-05-10T15:16:31;14.80;99.90
19888;DHT22;10106;51.332;12.336;2023-05-10T15:18:57;14.80;99.90
19888;DHT22;10106;51.332;12.336;2023-05-10T15:21:23;14.70;99.90
19888;DHT22;10106;51.332;12.336;2023-05-10T15:23:50;14.60;99.90
19888;DHT22;10106;51.332;12.336;2023-05-10T15:26:16;14.60;99.90
19888;DHT22;10106;51.332;12.336;2023-05-10T15:28:47;14.40;99.90
19888;DHT22;10106;51.332;12.336;2023-05-10T15:31:14;14.40;99.90
19888;DHT22;10106;51.332;12.336;2023-05-10T15:33:40;14.50;99.90
19888;DHT22;10106;51.332;12.336;2023-05-10T15:36:06;14.50;99.90
19888;DHT22;10106;51.332;12.336;2023-05-10T15:38:32;14.50;99.90
19888;DHT22;10106;51.332;12.336;2023-05-10T15:41:01;14.50;99.90
19888;DHT22;10106;51.332;12.336;2023-05-10T15:43:27;14.60;99.90
19888;DHT22;10106;51.332;12.336;2023-05-10T15:45:53;14.70;99.90
19888;DHT22;10106;51.332;12.336;2023-05-10T15:48:19;14.80;99.90
19888;DHT22;10106;51.332;12.336;2023-05-10T15:50:45;14.80;99.90
19888;DHT22;10106;51.332;12.336;2023-05-10T15:53:10;14.80;99.90
19888;DHT22;10106;51.332;12.336;2023-05-10T15:55:37;14.80;99.90
19888;DHT22;10106;51.332;12.336;2023-05-10T15:58:03;14.80;99.90
19888;DHT22;10106;51.332;12.336;2023-05-10T16:00:29;14.90;99.90
19888;DHT22;10106;51.332;12.336;2023-05-10T16:02:55;15.00;99.90